sensor_id;sensor_type;location;lat;lon;timestamp;pressure;altitude;pressure_sealevel;temperature
58102;BMP280;52034;51.926;6.320;2023-03-20T00:00:45;101847.84;;;10.28
58102;BMP280;52034;51.926;6.320;2023-03-20T00:01:46;101845.84;;;10.31
58102;BMP280;52034;51.926;6.320;2023-03-20T00:02:47;101850.75;;;10.30
58102;BMP280;52034;51.926;6.320;2023-03-20T00:03:49;101850.75;;;10.30
58102;BMP280;52034;51.926;6.320;2023-03-20T00:04:49;101846.38;;;10.27
58102;BMP280;52034;51.926;6.320;2023-03-20T00:05:49;101846.38;;;10.27
58102;BMP280;52034;51.926;6.320;2023-03-20T00:06:51;101854.81;;;10.27
58102;BMP280;52034;51.926;6.320;2023-03-20T00:07:51;101851.25;;;10.27
58102;BMP280;52034;51.926;6.320;2023-03-20T00:08:52;101857.47;;;10.25
58102;BMP280;52034;51.926;6.320;2023-03-20T00:09:53;101854.56;;;10.23
58102;BMP280;52034;51.926;6.320;2023-03-20T00:10:57;101860.78;;;10.22
58102;BMP280;52034;51.926;6.320;2023-03-20T00:11:58;101854.34;;;10.19
58102;BMP280;52034;51.926;6.320;2023-03-20T00:12:59;101840.19;;;10.17
58102;BMP280;52034;51.926;6.320;2023-03-20T00:14:06;101847.28;;;10.18
58102;BMP280;52034;51.926;6.320;2023-03-20T00:15:22;101840.19;;;10.17
58102;BMP280;52034;51.926;6.320;2023-03-20T00:16:24;101834.59;;;10.17
58102;BMP280;52034;51.926;6.320;2023-03-20T00:17:26;101837.28;;;10.15
58102;BMP280;52034;51.926;6.320;2023-03-20T00:18:26;101828.09;;;10.15
58102;BMP280;52034;51.926;6.320;2023-03-20T00:19:28;101834.59;;;10.17
58102;BMP280;52034;51.926;6.320;2023-03-20T00:20:28;101835.91;;;10.16
58102;BMP280;52034;51.926;6.320;2023-03-20T00:21:29;101842.13;;;10.15
58102;BMP280;52034;51.926;6.320;2023-03-20T00:22:29;101846.53;;;10.18
58102;BMP280;52034;51.926;6.320;2023-03-20T00:23:31;101846.44;;;10.16
58102;BMP280;52034;51.926;6.320;2023-03-20T00:24:32;101839.34;;;10.15
58102;BMP280;52034;51.926;6.320;2023-03-20T00:25:32;101825.72;;;10.09
58102;BMP280;52034;51.926;6.320;2023-03-20T00:26:34;101834.47;;;10.15
58102;BMP280;52034;51.926;6.320;2023-03-20T00:27:35;101831.66;;;10.15
58102;BMP280;52034;51.926;6.320;2023-03-20T00:28:41;101818.16;;;10.12
58102;BMP280;52034;51.926;6.320;2023-03-20T00:29:43;101820.44;;;10.15
58102;BMP280;52034;51.926;6.320;2023-03-20T00:30:43;101823.22;;;10.15
58102;BMP280;52034;51.926;6.320;2023-03-20T00:31:44;101820.97;;;10.12
58102;BMP280;52034;51.926;6.320;2023-03-20T00:32:44;101828.84;;;10.15
58102;BMP280;52034;51.926;6.320;2023-03-20T00:33:45;101825.19;;;10.13
58102;BMP280;52034;51.926;6.320;2023-03-20T00:34:45;101828.66;;;10.11
58102;BMP280;52034;51.926;6.320;2023-03-20T00:35:46;101828.66;;;10.11
58102;BMP280;52034;51.926;6.320;2023-03-20T00:36:48;101833.50;;;10.11
58102;BMP280;52034;51.926;6.320;2023-03-20T00:37:49;101827.19;;;10.10
58102;BMP280;52034;51.926;6.320;2023-03-20T00:38:50;101839.03;;;10.09
58102;BMP280;52034;51.926;6.320;2023-03-20T00:39:50;101840.97;;;10.06
58102;BMP280;52034;51.926;6.320;2023-03-20T00:40:51;101840.88;;;10.04
58102;BMP280;52034;51.926;6.320;2023-03-20T00:41:54;101845.13;;;10.05
58102;BMP280;52034;51.926;6.320;2023-03-20T00:43:00;101835.34;;;10.06
58102;BMP280;52034;51.926;6.320;2023-03-20T00:45:23;101833.78;;;10.03
58102;BMP280;52034;51.926;6.320;2023-03-20T00:46:24;101831.59;;;10.02
58102;BMP280;52034;51.926;6.320;2023-03-20T00:47:25;101833.06;;;10.03
58102;BMP280;52034;51.926;6.320;2023-03-20T00:48:26;101825.25;;;10.01
58102;BMP280;52034;51.926;6.320;2023-03-20T00:49:32;101832.47;;;10.04
58102;BMP280;52034;51.926;6.320;2023-03-20T00:50:33;101823.31;;;10.04
58102;BMP280;52034;51.926;6.320;2023-03-20T00:51:33;101822.56;;;10.03
58102;BMP280;52034;51.926;6.320;2023-03-20T00:52:33;101832.34;;;10.02
58102;BMP280;52034;51.926;6.320;2023-03-20T00:53:34;101829.53;;;10.02
58102;BMP280;52034;51.926;6.320;2023-03-20T00:54:34;101835.00;;;10.00
58102;BMP280;52034;51.926;6.320;2023-03-20T00:55:35;101830.75;;;9.99
58102;BMP280;52034;51.926;6.320;2023-03-20T00:56:47;101829.91;;;9.97
58102;BMP280;52034;51.926;6.320;2023-03-20T00:57:55;101831.28;;;9.96
58102;BMP280;52034;51.926;6.320;2023-03-20T00:58:58;101831.03;;;9.92
58102;BMP280;52034;51.926;6.320;2023-03-20T01:00:03;101824.69;;;9.91
58102;BMP280;52034;51.926;6.320;2023-03-20T01:01:04;101833.13;;;9.91
58102;BMP280;52034;51.926;6.320;2023-03-20T01:02:05;101828.09;;;9.90
58102;BMP280;52034;51.926;6.320;2023-03-20T01:03:14;101832.97;;;9.89
58102;BMP280;52034;51.926;6.320;2023-03-20T01:04:17;101837.78;;;9.87
58102;BMP280;52034;51.926;6.320;2023-03-20T01:05:19;101836.31;;;9.86
58102;BMP280;52034;51.926;6.320;2023-03-20T01:06:19;101837.84;;;9.89
58102;BMP280;52034;51.926;6.320;2023-03-20T01:07:20;101842.84;;;9.90
58102;BMP280;52034;51.926;6.320;2023-03-20T01:08:23;101837.38;;;9.92
58102;BMP280;52034;51.926;6.320;2023-03-20T01:09:23;101837.97;;;9.91
58102;BMP280;52034;51.926;6.320;2023-03-20T01:10:27;101844.34;;;9.91
58102;BMP280;52034;51.926;6.320;2023-03-20T01:11:29;101835.91;;;9.91
58102;BMP280;52034;51.926;6.320;2023-03-20T01:12:29;101835.19;;;9.91
58102;BMP280;52034;51.926;6.320;2023-03-20T01:13:30;101830.31;;;9.91
58102;BMP280;52034;51.926;6.320;2023-03-20T01:14:31;101828.81;;;9.90
58102;BMP280;52034;51.926;6.320;2023-03-20T01:15:32;101828.81;;;9.90
58102;BMP280;52034;51.926;6.320;2023-03-20T01:16:33;101824.69;;;9.91
58102;BMP280;52034;51.926;6.320;2023-03-20T01:17:33;101830.41;;;9.93
58102;BMP280;52034;51.926;6.320;2023-03-20T01:18:33;101826.75;;;9.91
58102;BMP280;52034;51.926;6.320;2023-03-20T01:19:34;101821.38;;;9.95
58102;BMP280;52034;51.926;6.320;2023-03-20T01:20:36;101823.56;;;9.96
58102;BMP280;52034;51.926;6.320;2023-03-20T01:21:36;101824.19;;;9.95
58102;BMP280;52034;51.926;6.320;2023-03-20T01:22:36;101828.47;;;9.96
58102;BMP280;52034;51.926;6.320;2023-03-20T01:23:37;101815.88;;;9.97
58102;BMP280;52034;51.926;6.320;2023-03-20T01:24:37;101821.47;;;9.97
58102;BMP280;52034;51.926;6.320;2023-03-20T01:25:38;101823.78;;;10.00
58102;BMP280;52034;51.926;6.320;2023-03-20T01:26:40;101835.00;;;10.00
58102;BMP280;52034;51.926;6.320;2023-03-20T01:27:46;101836.91;;;9.96
58102;BMP280;52034;51.926;6.320;2023-03-20T01:28:49;101841.88;;;9.97
58102;BMP280;52034;51.926;6.320;2023-03-20T01:29:50;101834.09;;;9.96
58102;BMP280;52034;51.926;6.320;2023-03-20T01:30:51;101835.41;;;9.95
58102;BMP280;52034;51.926;6.320;2023-03-20T01:31:52;101845.19;;;9.94
58102;BMP280;52034;51.926;6.320;2023-03-20T01:32:54;101845.91;;;9.94
58102;BMP280;52034;51.926;6.320;2023-03-20T01:33:55;101854.34;;;9.94
58102;BMP280;52034;51.926;6.320;2023-03-20T01:34:56;101858.47;;;9.93
58102;BMP280;52034;51.926;6.320;2023-03-20T01:35:57;101852.13;;;9.93
58102;BMP280;52034;51.926;6.320;2023-03-20T01:36:59;101853.59;;;9.94
58102;BMP280;52034;51.926;6.320;2023-03-20T01:37:59;101852.84;;;9.93
58102;BMP280;52034;51.926;6.320;2023-03-20T01:39:00;101856.41;;;9.94
58102;BMP280;52034;51.926;6.320;2023-03-20T01:40:00;101864.81;;;9.94
58102;BMP280;52034;51.926;6.320;2023-03-20T01:41:05;101864.69;;;9.92
58102;BMP280;52034;51.926;6.320;2023-03-20T01:42:13;101868.22;;;9.92
58102;BMP280;52034;51.926;6.320;2023-03-20T01:43:18;101870.19;;;9.90
58102;BMP280;52034;51.926;6.320;2023-03-20T01:44:25;101865.69;;;9.85
58102;BMP280;52034;51.926;6.320;2023-03-20T01:45:34;101874.09;;;9.85
58102;BMP280;52034;51.926;6.320;2023-03-20T01:46:36;101874.72;;;9.83
58102;BMP280;52034;51.926;6.320;2023-03-20T01:47:47;101867.03;;;9.84
58102;BMP280;52034;51.926;6.320;2023-03-20T01:50:17;101859.97;;;9.83
58102;BMP280;52034;51.926;6.320;2023-03-20T01:51:20;101862.03;;;9.82
58102;BMP280;52034;51.926;6.320;2023-03-20T01:52:23;101866.28;;;9.83
58102;BMP280;52034;51.926;6.320;2023-03-20T01:53:24;101863.50;;;9.83
58102;BMP280;52034;51.926;6.320;2023-03-20T01:54:36;101862.88;;;9.85
58102;BMP280;52034;51.926;6.320;2023-03-20T01:55:42;101860.81;;;9.85
58102;BMP280;52034;51.926;6.320;2023-03-20T01:56:57;101855.22;;;9.85
58102;BMP280;52034;51.926;6.320;2023-03-20T01:58:02;101872.66;;;9.84
58102;BMP280;52034;51.926;6.320;2023-03-20T01:59:14;101874.00;;;9.83
58102;BMP280;52034;51.926;6.320;2023-03-20T02:00:16;101876.19;;;9.84
58102;BMP280;52034;51.926;6.320;2023-03-20T02:01:17;101876.81;;;9.83
58102;BMP280;52034;51.926;6.320;2023-03-20T02:02:24;101873.38;;;9.84
58102;BMP280;52034;51.926;6.320;2023-03-20T02:03:25;101881.19;;;9.86
58102;BMP280;52034;51.926;6.320;2023-03-20T02:04:50;101877.03;;;9.87
58102;BMP280;52034;51.926;6.320;2023-03-20T02:05:51;101879.91;;;9.89
58102;BMP280;52034;51.926;6.320;2023-03-20T02:06:52;101882.00;;;9.88
58102;BMP280;52034;51.926;6.320;2023-03-20T02:08:12;101874.84;;;9.85
58102;BMP280;52034;51.926;6.320;2023-03-20T02:09:14;101874.59;;;9.81
58102;BMP280;52034;51.926;6.320;2023-03-20T02:10:17;101877.66;;;9.85
58102;BMP280;52034;51.926;6.320;2023-03-20T02:11:40;101863.00;;;9.87
58102;BMP280;52034;51.926;6.320;2023-03-20T02:12:42;101865.19;;;9.88
58102;BMP280;52034;51.926;6.320;2023-03-20T02:13:50;101868.00;;;9.88
58102;BMP280;52034;51.926;6.320;2023-03-20T02:14:52;101860.97;;;9.87
58102;BMP280;52034;51.926;6.320;2023-03-20T02:16:12;101866.28;;;9.83
58102;BMP280;52034;51.926;6.320;2023-03-20T02:17:40;101869.22;;;9.85
58102;BMP280;52034;51.926;6.320;2023-03-20T02:18:44;101867.25;;;9.88
58102;BMP280;52034;51.926;6.320;2023-03-20T02:20:22;101862.47;;;9.90
58102;BMP280;52034;51.926;6.320;2023-03-20T02:26:17;101871.88;;;9.95
58102;BMP280;52034;51.926;6.320;2023-03-20T02:31:22;101875.59;;;9.86
58102;BMP280;52034;51.926;6.320;2023-03-20T02:34:19;101858.63;;;9.84
58102;BMP280;52034;51.926;6.320;2023-03-20T02:39:51;101836.66;;;9.80
58102;BMP280;52034;51.926;6.320;2023-03-20T02:41:04;101833.13;;;9.80
58102;BMP280;52034;51.926;6.320;2023-03-20T02:42:13;101834.59;;;9.81
58102;BMP280;52034;51.926;6.320;2023-03-20T02:43:23;101841.06;;;9.83
58102;BMP280;52034;51.926;6.320;2023-03-20T02:45:59;101853.63;;;9.82
58102;BMP280;52034;51.926;6.320;2023-03-20T02:47:12;101842.41;;;9.82
58102;BMP280;52034;51.926;6.320;2023-03-20T02:48:38;101839.72;;;9.84
58102;BMP280;52034;51.926;6.320;2023-03-20T02:51:09;101831.19;;;9.82
58102;BMP280;52034;51.926;6.320;2023-03-20T02:52:24;101830.44;;;9.82
58102;BMP280;52034;51.926;6.320;2023-03-20T02:53:38;101829.00;;;9.81
58102;BMP280;52034;51.926;6.320;2023-03-20T02:57:43;101817.44;;;9.75
58102;BMP280;52034;51.926;6.320;2023-03-20T02:58:59;101814.75;;;9.77
58102;BMP280;52034;51.926;6.320;2023-03-20T03:00:09;101819.50;;;9.74
58102;BMP280;52034;51.926;6.320;2023-03-20T03:01:16;101816.47;;;9.70
58102;BMP280;52034;51.926;6.320;2023-03-20T03:02:22;101811.09;;;9.74
58102;BMP280;52034;51.926;6.320;2023-03-20T03:03:36;101814.00;;;9.76
58102;BMP280;52034;51.926;6.320;2023-03-20T03:04:41;101819.75;;;9.78
58102;BMP280;52034;51.926;6.320;2023-03-20T03:05:48;101822.75;;;9.82
58102;BMP280;52034;51.926;6.320;2023-03-20T03:06:51;101827.53;;;9.80
58102;BMP280;52034;51.926;6.320;2023-03-20T03:07:55;101832.53;;;9.81
58102;BMP280;52034;51.926;6.320;2023-03-20T03:09:09;101838.66;;;9.78
58102;BMP280;52034;51.926;6.320;2023-03-20T03:10:16;101821.56;;;9.74
58102;BMP280;52034;51.926;6.320;2023-03-20T03:11:20;101815.97;;;9.74
58102;BMP280;52034;51.926;6.320;2023-03-20T03:12:24;101828.28;;;9.69
58102;BMP280;52034;51.926;6.320;2023-03-20T03:13:30;101825.59;;;9.71
58102;BMP280;52034;51.926;6.320;2023-03-20T03:14:36;101829.16;;;9.71
58102;BMP280;52034;51.926;6.320;2023-03-20T03:15:39;101827.59;;;9.68
58102;BMP280;52034;51.926;6.320;2023-03-20T03:16:40;101836.94;;;9.73
58102;BMP280;52034;51.926;6.320;2023-03-20T03:17:43;101833.91;;;9.69
58102;BMP280;52034;51.926;6.320;2023-03-20T03:19:02;101833.28;;;9.70
58102;BMP280;52034;51.926;6.320;2023-03-20T03:20:11;101841.72;;;9.70
58102;BMP280;52034;51.926;6.320;2023-03-20T03:21:15;101840.72;;;9.66
58102;BMP280;52034;51.926;6.320;2023-03-20T03:22:17;101842.22;;;9.67
58102;BMP280;52034;51.926;6.320;2023-03-20T03:23:41;101841.34;;;9.64
58102;BMP280;52034;51.926;6.320;2023-03-20T03:24:46;101840.50;;;9.62
58102;BMP280;52034;51.926;6.320;2023-03-20T03:25:47;101842.69;;;9.63
58102;BMP280;52034;51.926;6.320;2023-03-20T03:26:49;101834.06;;;9.59
58102;BMP280;52034;51.926;6.320;2023-03-20T03:29:15;101836.88;;;9.59
58102;BMP280;52034;51.926;6.320;2023-03-20T03:30:23;101836.88;;;9.59
58102;BMP280;52034;51.926;6.320;2023-03-20T03:31:25;101837.47;;;9.58
58102;BMP280;52034;51.926;6.320;2023-03-20T03:32:31;101835.88;;;9.55
58102;BMP280;52034;51.926;6.320;2023-03-20T03:33:34;101833.06;;;9.55
58102;BMP280;52034;51.926;6.320;2023-03-20T03:34:36;101831.72;;;9.56
58102;BMP280;52034;51.926;6.320;2023-03-20T03:35:38;101829.66;;;9.56
58102;BMP280;52034;51.926;6.320;2023-03-20T03:37:03;101833.22;;;9.57
58102;BMP280;52034;51.926;6.320;2023-03-20T03:38:27;101827.00;;;9.58
58102;BMP280;52034;51.926;6.320;2023-03-20T03:39:39;101822.38;;;9.51
58102;BMP280;52034;51.926;6.320;2023-03-20T03:40:45;101826.00;;;9.54
58102;BMP280;52034;51.926;6.320;2023-03-20T03:42:04;101819.19;;;9.57
58102;BMP280;52034;51.926;6.320;2023-03-20T03:43:23;101815.66;;;9.56
58102;BMP280;52034;51.926;6.320;2023-03-20T03:44:29;101822.38;;;9.51
58102;BMP280;52034;51.926;6.320;2023-03-20T03:45:41;101812.63;;;9.52
58102;BMP280;52034;51.926;6.320;2023-03-20T03:46:51;101812.84;;;9.56
58102;BMP280;52034;51.926;6.320;2023-03-20T03:47:56;101807.03;;;9.52
58102;BMP280;52034;51.926;6.320;2023-03-20T03:48:59;101797.25;;;9.53
58102;BMP280;52034;51.926;6.320;2023-03-20T03:50:36;101808.44;;;9.53
58102;BMP280;52034;51.926;6.320;2023-03-20T03:51:32;101803.59;;;9.54
58102;BMP280;52034;51.926;6.320;2023-03-20T03:52:40;101784.22;;;9.46
58102;BMP280;52034;51.926;6.320;2023-03-20T03:53:45;101784.34;;;9.48
58102;BMP280;52034;51.926;6.320;2023-03-20T03:55:07;101779.84;;;9.43
58102;BMP280;52034;51.926;6.320;2023-03-20T03:56:11;101778.88;;;9.39
58102;BMP280;52034;51.926;6.320;2023-03-20T03:57:17;101784.97;;;9.35
58102;BMP280;52034;51.926;6.320;2023-03-20T03:58:27;101782.53;;;9.30
58102;BMP280;52034;51.926;6.320;2023-03-20T03:59:34;101776.47;;;9.33
58102;BMP280;52034;51.926;6.320;2023-03-20T04:00:36;101778.66;;;9.35
58102;BMP280;52034;51.926;6.320;2023-03-20T04:01:39;101779.38;;;9.35
58102;BMP280;52034;51.926;6.320;2023-03-20T04:02:45;101775.84;;;9.35
58102;BMP280;52034;51.926;6.320;2023-03-20T04:03:52;101771.59;;;9.34
58102;BMP280;52034;51.926;6.320;2023-03-20T04:04:54;101775.72;;;9.33
58102;BMP280;52034;51.926;6.320;2023-03-20T04:05:56;101770.84;;;9.33
58102;BMP280;52034;51.926;6.320;2023-03-20T04:06:57;101775.22;;;9.36
58102;BMP280;52034;51.926;6.320;2023-03-20T04:08:01;101775.13;;;9.34
58102;BMP280;52034;51.926;6.320;2023-03-20T04:09:02;101778.53;;;9.33
58102;BMP280;52034;51.926;6.320;2023-03-20T04:10:03;101782.44;;;9.28
58102;BMP280;52034;51.926;6.320;2023-03-20T04:11:03;101771.84;;;9.26
58102;BMP280;52034;51.926;6.320;2023-03-20T04:12:04;101771.94;;;9.28
58102;BMP280;52034;51.926;6.320;2023-03-20T04:13:06;101775.28;;;9.25
58102;BMP280;52034;51.926;6.320;2023-03-20T04:14:06;101780.88;;;9.25
58102;BMP280;52034;51.926;6.320;2023-03-20T04:15:07;101778.44;;;9.19
58102;BMP280;52034;51.926;6.320;2023-03-20T04:16:18;101773.94;;;9.14
58102;BMP280;52034;51.926;6.320;2023-03-20T04:17:19;101777.94;;;9.11
58102;BMP280;52034;51.926;6.320;2023-03-20T04:18:19;101779.53;;;9.14
58102;BMP280;52034;51.926;6.320;2023-03-20T04:19:21;101777.47;;;9.15
58102;BMP280;52034;51.926;6.320;2023-03-20T04:20:21;101772.47;;;9.13
58102;BMP280;52034;51.926;6.320;2023-03-20T04:21:22;101769.78;;;9.15
58102;BMP280;52034;51.926;6.320;2023-03-20T04:22:25;101775.13;;;9.11
58102;BMP280;52034;51.926;6.320;2023-03-20T04:23:25;101778.44;;;9.08
58102;BMP280;52034;51.926;6.320;2023-03-20T04:24:26;101778.19;;;9.04
58102;BMP280;52034;51.926;6.320;2023-03-20T04:25:27;101782.34;;;9.03
58102;BMP280;52034;51.926;6.320;2023-03-20T04:26:29;101785.75;;;9.01
58102;BMP280;52034;51.926;6.320;2023-03-20T04:27:30;101776.50;;;8.99
58102;BMP280;52034;51.926;6.320;2023-03-20T04:28:31;101781.38;;;8.98
58102;BMP280;52034;51.926;6.320;2023-03-20T04:29:50;101777.13;;;8.97
58102;BMP280;52034;51.926;6.320;2023-03-20T04:31:09;101781.97;;;8.97
58102;BMP280;52034;51.926;6.320;2023-03-20T04:32:25;101789.53;;;8.94
58102;BMP280;52034;51.926;6.320;2023-03-20T04:33:35;101779.19;;;8.97
58102;BMP280;52034;51.926;6.320;2023-03-20T04:34:40;101775.53;;;8.94
58102;BMP280;52034;51.926;6.320;2023-03-20T04:36:02;101771.13;;;8.91
58102;BMP280;52034;51.926;6.320;2023-03-20T04:37:03;101771.03;;;8.89
58102;BMP280;52034;51.926;6.320;2023-03-20T04:38:18;101767.00;;;8.92
58102;BMP280;52034;51.926;6.320;2023-03-20T04:39:19;101770.53;;;8.93
58102;BMP280;52034;51.926;6.320;2023-03-20T04:40:20;101771.38;;;8.95
58102;BMP280;52034;51.926;6.320;2023-03-20T04:41:21;101764.56;;;8.98
58102;BMP280;52034;51.926;6.320;2023-03-20T04:42:26;101778.47;;;8.96
58102;BMP280;52034;51.926;6.320;2023-03-20T04:43:31;101772.13;;;8.96
58102;BMP280;52034;51.926;6.320;2023-03-20T04:44:32;101772.72;;;8.94
58102;BMP280;52034;51.926;6.320;2023-03-20T04:45:35;101775.53;;;8.94
58102;BMP280;52034;51.926;6.320;2023-03-20T04:46:35;101770.53;;;8.93
58102;BMP280;52034;51.926;6.320;2023-03-20T04:47:39;101760.69;;;8.92
58102;BMP280;52034;51.926;6.320;2023-03-20T04:48:40;101772.38;;;8.88
58102;BMP280;52034;51.926;6.320;2023-03-20T04:49:41;101774.69;;;8.92
58102;BMP280;52034;51.926;6.320;2023-03-20T04:50:42;101777.72;;;8.84
58102;BMP280;52034;51.926;6.320;2023-03-20T04:51:45;101783.31;;;8.84
58102;BMP280;52034;51.926;6.320;2023-03-20T04:52:47;101783.06;;;8.80
58102;BMP280;52034;51.926;6.320;2023-03-20T04:53:49;101786.59;;;8.81
58102;BMP280;52034;51.926;6.320;2023-03-20T04:54:51;101784.41;;;8.79
58102;BMP280;52034;51.926;6.320;2023-03-20T04:55:51;101787.47;;;8.83
58102;BMP280;52034;51.926;6.320;2023-03-20T04:56:52;101790.13;;;8.81
58102;BMP280;52034;51.926;6.320;2023-03-20T04:57:53;101788.94;;;8.84
58102;BMP280;52034;51.926;6.320;2023-03-20T04:58:54;101790.13;;;8.81
58102;BMP280;52034;51.926;6.320;2023-03-20T04:59:55;101783.94;;;8.83
58102;BMP280;52034;51.926;6.320;2023-03-20T05:00:56;101785.13;;;8.80
58102;BMP280;52034;51.926;6.320;2023-03-20T05:01:56;101777.59;;;8.82
58102;BMP280;52034;51.926;6.320;2023-03-20T05:02:56;101775.06;;;8.86
58102;BMP280;52034;51.926;6.320;2023-03-20T05:03:57;101772.97;;;8.87
58102;BMP280;52034;51.926;6.320;2023-03-20T05:05:03;101781.88;;;8.83
58102;BMP280;52034;51.926;6.320;2023-03-20T05:06:05;101774.31;;;8.86
58102;BMP280;52034;51.926;6.320;2023-03-20T05:07:06;101775.78;;;8.87
58102;BMP280;52034;51.926;6.320;2023-03-20T05:08:14;101780.28;;;8.80
58102;BMP280;52034;51.926;6.320;2023-03-20T05:09:16;101778.94;;;8.81
58102;BMP280;52034;51.926;6.320;2023-03-20T05:10:17;101774.56;;;8.78
58102;BMP280;52034;51.926;6.320;2023-03-20T05:11:27;101774.06;;;8.82
58102;BMP280;52034;51.926;6.320;2023-03-20T05:12:44;101777.22;;;8.76
58102;BMP280;52034;51.926;6.320;2023-03-20T05:14:03;101781.38;;;8.75
58102;BMP280;52034;51.926;6.320;2023-03-20T05:15:22;101776.38;;;8.74
58102;BMP280;52034;51.926;6.320;2023-03-20T05:16:36;101783.69;;;8.79
58102;BMP280;52034;51.926;6.320;2023-03-20T05:17:54;101782.09;;;8.76
58102;BMP280;52034;51.926;6.320;2023-03-20T05:19:05;101776.97;;;8.72
58102;BMP280;52034;51.926;6.320;2023-03-20T05:20:17;101780.75;;;8.77
58102;BMP280;52034;51.926;6.320;2023-03-20T05:21:33;101773.09;;;8.66
58102;BMP280;52034;51.926;6.320;2023-03-20T05:22:43;101775.28;;;8.67
58102;BMP280;52034;51.926;6.320;2023-03-20T05:23:49;101775.50;;;8.71
58102;BMP280;52034;51.926;6.320;2023-03-20T05:25:09;101774.69;;;8.69
58102;BMP280;52034;51.926;6.320;2023-03-20T05:26:22;101771.16;;;8.68
58102;BMP280;52034;51.926;6.320;2023-03-20T05:27:28;101771.16;;;8.68
58102;BMP280;52034;51.926;6.320;2023-03-20T05:28:55;101775.88;;;8.66
58102;BMP280;52034;51.926;6.320;2023-03-20T05:30:28;101768.19;;;8.66
58102;BMP280;52034;51.926;6.320;2023-03-20T05:31:45;101769.41;;;8.63
58102;BMP280;52034;51.926;6.320;2023-03-20T05:32:51;101771.16;;;8.68
58102;BMP280;52034;51.926;6.320;2023-03-20T05:34:00;101768.69;;;8.63
58102;BMP280;52034;51.926;6.320;2023-03-20T05:35:12;101763.59;;;8.59
58102;BMP280;52034;51.926;6.320;2023-03-20T05:36:30;101768.47;;;8.59
58102;BMP280;52034;51.926;6.320;2023-03-20T05:37:50;101771.75;;;8.67
58102;BMP280;52034;51.926;6.320;2023-03-20T05:39:02;101769.56;;;8.65
58102;BMP280;52034;51.926;6.320;2023-03-20T05:40:16;101770.16;;;8.64
58102;BMP280;52034;51.926;6.320;2023-03-20T05:41:32;101766.50;;;8.61
58102;BMP280;52034;51.926;6.320;2023-03-20T05:42:58;101775.38;;;8.58
58102;BMP280;52034;51.926;6.320;2023-03-20T05:44:17;101776.72;;;8.57
58102;BMP280;52034;51.926;6.320;2023-03-20T05:45:50;101776.59;;;8.55
58102;BMP280;52034;51.926;6.320;2023-03-20T05:47:04;101774.28;;;8.51
58102;BMP280;52034;51.926;6.320;2023-03-20T05:48:25;101766.72;;;8.54
58102;BMP280;52034;51.926;6.320;2023-03-20T05:50:01;101770.13;;;8.52
58102;BMP280;52034;51.926;6.320;2023-03-20T05:51:10;101773.69;;;8.53
58102;BMP280;52034;51.926;6.320;2023-03-20T05:52:30;101781.84;;;8.60
58102;BMP280;52034;51.926;6.320;2023-03-20T05:53:53;101785.72;;;8.55
58102;BMP280;52034;51.926;6.320;2023-03-20T05:55:16;101782.31;;;8.57
58102;BMP280;52034;51.926;6.320;2023-03-20T05:56:35;101783.53;;;8.54
58102;BMP280;52034;51.926;6.320;2023-03-20T05:58:01;101794.13;;;8.55
58102;BMP280;52034;51.926;6.320;2023-03-20T05:59:31;101791.56;;;8.59
58102;BMP280;52034;51.926;6.320;2023-03-20T06:00:50;101794.72;;;8.54
58102;BMP280;52034;51.926;6.320;2023-03-20T06:02:11;101796.09;;;8.64
58102;BMP280;52034;51.926;6.320;2023-03-20T06:03:14;101807.88;;;8.63
58102;BMP280;52034;51.926;6.320;2023-03-20T06:04:30;101801.81;;;8.66
58102;BMP280;52034;51.926;6.320;2023-03-20T06:05:54;101808.28;;;8.69
58102;BMP280;52034;51.926;6.320;2023-03-20T06:06:54;101798.28;;;8.66
58102;BMP280;52034;51.926;6.320;2023-03-20T06:07:55;101797.28;;;8.61
58102;BMP280;52034;51.926;6.320;2023-03-20T06:08:55;101806.94;;;8.70
58102;BMP280;52034;51.926;6.320;2023-03-20T06:09:55;101795.59;;;8.68
58102;BMP280;52034;51.926;6.320;2023-03-20T06:10:56;101798.88;;;8.64
58102;BMP280;52034;51.926;6.320;2023-03-20T06:11:57;101796.19;;;8.66
58102;BMP280;52034;51.926;6.320;2023-03-20T06:12:58;101801.94;;;8.68
58102;BMP280;52034;51.926;6.320;2023-03-20T06:14:00;101802.91;;;8.73
58102;BMP280;52034;51.926;6.320;2023-03-20T06:15:09;101799.88;;;8.69
58102;BMP280;52034;51.926;6.320;2023-03-20T06:16:14;101802.16;;;8.72
58102;BMP280;52034;51.926;6.320;2023-03-20T06:17:14;101799.16;;;8.68
58102;BMP280;52034;51.926;6.320;2023-03-20T06:18:16;101798.53;;;8.70
58102;BMP280;52034;51.926;6.320;2023-03-20T06:19:16;101799.88;;;8.69
58102;BMP280;52034;51.926;6.320;2023-03-20T06:20:17;101804.75;;;8.68
58102;BMP280;52034;51.926;6.320;2023-03-20T06:21:18;101805.34;;;8.67
58102;BMP280;52034;51.926;6.320;2023-03-20T06:22:18;101802.06;;;8.70
58102;BMP280;52034;51.926;6.320;2023-03-20T06:23:18;101810.56;;;8.72
58102;BMP280;52034;51.926;6.320;2023-03-20T06:24:19;101792.81;;;8.68
58102;BMP280;52034;51.926;6.320;2023-03-20T06:25:20;101798.28;;;8.66
58102;BMP280;52034;51.926;6.320;2023-03-20T06:26:20;101808.59;;;8.63
58102;BMP280;52034;51.926;6.320;2023-03-20T06:27:35;101797.19;;;8.59
58102;BMP280;52034;51.926;6.320;2023-03-20T06:28:35;101794.59;;;8.63
58102;BMP280;52034;51.926;6.320;2023-03-20T06:29:40;101801.81;;;8.66
58102;BMP280;52034;51.926;6.320;2023-03-20T06:30:51;101802.41;;;8.65
58102;BMP280;52034;51.926;6.320;2023-03-20T06:31:54;101800.34;;;8.65
58102;BMP280;52034;51.926;6.320;2023-03-20T06:32:59;101789.41;;;8.69
58102;BMP280;52034;51.926;6.320;2023-03-20T06:34:08;101794.16;;;8.67
58102;BMP280;52034;51.926;6.320;2023-03-20T06:35:15;101792.94;;;8.70
58102;BMP280;52034;51.926;6.320;2023-03-20T06:36:19;101794.75;;;8.77
58102;BMP280;52034;51.926;6.320;2023-03-20T06:37:24;101789.75;;;8.75
58102;BMP280;52034;51.926;6.320;2023-03-20T06:38:30;101794.75;;;8.77
58102;BMP280;52034;51.926;6.320;2023-03-20T06:39:32;101796.97;;;8.78
58102;BMP280;52034;51.926;6.320;2023-03-20T06:40:33;101793.06;;;8.72
58102;BMP280;52034;51.926;6.320;2023-03-20T06:41:34;101796.81;;;8.76
58102;BMP280;52034;51.926;6.320;2023-03-20T06:42:35;101796.09;;;8.76
58102;BMP280;52034;51.926;6.320;2023-03-20T06:43:36;101792.09;;;8.79
58102;BMP280;52034;51.926;6.320;2023-03-20T06:44:36;101790.00;;;8.79
58102;BMP280;52034;51.926;6.320;2023-03-20T06:45:47;101801.22;;;8.79